sensor_id;sensor_type;location;lat;lon;timestamp;P1;durP1;ratioP1;P2;durP2;ratioP2
6177;SDS011;3122;48.208;11.174;2023-07-13T00:04:09;10.20;;;6.10;;
6177;SDS011;3122;48.208;11.174;2023-07-13T00:09:14;7.67;;;6.17;;
6177;SDS011;3122;48.208;11.174;2023-07-13T00:14:16;7.00;;;6.10;;
6177;SDS011;3122;48.208;11.174;2023-07-13T00:19:16;8.83;;;6.00;;
6177;SDS011;3122;48.208;11.174;2023-07-13T00:24:17;8.37;;;5.63;;
6177;SDS011;3122;48.208;11.174;2023-07-13T00:29:23;12.53;;;5.90;;
6177;SDS011;3122;48.208;11.174;2023-07-13T00:34:25;6.43;;;5.50;;
6177;SDS011;3122;48.208;11.174;2023-07-13T00:39:26;9.87;;;7.83;;
6177;SDS011;3122;48.208;11.174;2023-07-13T00:44:27;8.27;;;6.90;;
6177;SDS011;3122;48.208;11.174;2023-07-13T00:49:29;8.53;;;6.40;;
6177;SDS011;3122;48.208;11.174;2023-07-13T00:54:33;11.77;;;6.40;;
6177;SDS011;3122;48.208;11.174;2023-07-13T00:59:40;8.77;;;6.80;;
6177;SDS011;3122;48.208;11.174;2023-07-13T01:04:45;8.90;;;6.10;;
6177;SDS011;3122;48.208;11.174;2023-07-13T01:09:45;9.60;;;6.63;;
6177;SDS011;3122;48.208;11.174;2023-07-13T01:14:46;7.10;;;5.90;;
6177;SDS011;3122;48.208;11.174;2023-07-13T01:19:47;11.73;;;6.77;;
6177;SDS011;3122;48.208;11.174;2023-07-13T01:24:47;8.20;;;6.30;;
6177;SDS011;3122;48.208;11.174;2023-07-13T01:29:48;8.40;;;6.73;;
6177;SDS011;3122;48.208;11.174;2023-07-13T01:34:50;8.00;;;7.20;;
6177;SDS011;3122;48.208;11.174;2023-07-13T01:39:54;11.97;;;7.37;;
6177;SDS011;3122;48.208;11.174;2023-07-13T01:44:54;12.83;;;8.50;;
6177;SDS011;3122;48.208;11.174;2023-07-13T01:49:55;12.70;;;8.60;;
6177;SDS011;3122;48.208;11.174;2023-07-13T01:54:55;9.10;;;7.30;;
6177;SDS011;3122;48.208;11.174;2023-07-13T01:59:56;10.77;;;8.07;;
6177;SDS011;3122;48.208;11.174;2023-07-13T02:04:56;16.60;;;8.23;;
6177;SDS011;3122;48.208;11.174;2023-07-13T02:09:57;8.93;;;7.90;;
6177;SDS011;3122;48.208;11.174;2023-07-13T02:14:58;7.10;;;6.30;;
6177;SDS011;3122;48.208;11.174;2023-07-13T02:19:58;8.03;;;6.87;;
6177;SDS011;3122;48.208;11.174;2023-07-13T02:24:59;8.77;;;6.73;;
6177;SDS011;3122;48.208;11.174;2023-07-13T02:30:00;8.60;;;5.60;;
6177;SDS011;3122;48.208;11.174;2023-07-13T02:35:00;7.73;;;4.83;;
6177;SDS011;3122;48.208;11.174;2023-07-13T02:40:01;6.90;;;4.40;;
6177;SDS011;3122;48.208;11.174;2023-07-13T02:45:08;4.57;;;4.17;;
6177;SDS011;3122;48.208;11.174;2023-07-13T02:50:09;5.40;;;4.03;;
6177;SDS011;3122;48.208;11.174;2023-07-13T02:55:10;5.73;;;4.40;;
6177;SDS011;3122;48.208;11.174;2023-07-13T03:00:10;6.73;;;5.00;;
6177;SDS011;3122;48.208;11.174;2023-07-13T03:05:11;7.30;;;6.40;;
6177;SDS011;3122;48.208;11.174;2023-07-13T03:10:12;10.20;;;5.60;;
6177;SDS011;3122;48.208;11.174;2023-07-13T03:15:13;5.10;;;4.70;;
6177;SDS011;3122;48.208;11.174;2023-07-13T03:20:13;6.00;;;4.50;;
6177;SDS011;3122;48.208;11.174;2023-07-13T03:25:14;6.50;;;5.27;;
6177;SDS011;3122;48.208;11.174;2023-07-13T03:30:15;6.43;;;4.97;;
6177;SDS011;3122;48.208;11.174;2023-07-13T03:35:15;6.07;;;4.90;;
6177;SDS011;3122;48.208;11.174;2023-07-13T03:40:16;6.93;;;5.83;;
6177;SDS011;3122;48.208;11.174;2023-07-13T03:45:16;5.30;;;4.80;;
6177;SDS011;3122;48.208;11.174;2023-07-13T03:50:17;5.23;;;4.80;;
6177;SDS011;3122;48.208;11.174;2023-07-13T03:55:18;6.10;;;4.57;;
6177;SDS011;3122;48.208;11.174;2023-07-13T04:00:19;6.13;;;5.07;;
6177;SDS011;3122;48.208;11.174;2023-07-13T04:05:19;8.50;;;4.87;;
6177;SDS011;3122;48.208;11.174;2023-07-13T04:10:20;5.10;;;4.60;;
6177;SDS011;3122;48.208;11.174;2023-07-13T04:15:20;6.47;;;5.27;;
6177;SDS011;3122;48.208;11.174;2023-07-13T04:20:21;8.37;;;5.70;;
6177;SDS011;3122;48.208;11.174;2023-07-13T04:25:21;9.80;;;6.87;;
6177;SDS011;3122;48.208;11.174;2023-07-13T04:30:22;6.90;;;5.00;;
6177;SDS011;3122;48.208;11.174;2023-07-13T04:35:23;8.83;;;5.10;;
6177;SDS011;3122;48.208;11.174;2023-07-13T04:40:27;5.30;;;4.70;;
6177;SDS011;3122;48.208;11.174;2023-07-13T04:45:28;8.00;;;5.90;;
6177;SDS011;3122;48.208;11.174;2023-07-13T04:50:28;7.47;;;6.10;;
6177;SDS011;3122;48.208;11.174;2023-07-13T04:55:29;12.27;;;5.67;;
6177;SDS011;3122;48.208;11.174;2023-07-13T05:00:30;7.97;;;4.73;;
6177;SDS011;3122;48.208;11.174;2023-07-13T05:05:31;6.47;;;4.80;;
6177;SDS011;3122;48.208;11.174;2023-07-13T05:10:32;9.83;;;5.10;;
6177;SDS011;3122;48.208;11.174;2023-07-13T05:15:35;4.63;;;4.23;;
6177;SDS011;3122;48.208;11.174;2023-07-13T05:20:36;6.80;;;4.30;;
6177;SDS011;3122;48.208;11.174;2023-07-13T05:25:36;5.03;;;4.10;;
6177;SDS011;3122;48.208;11.174;2023-07-13T05:30:37;6.50;;;4.37;;
6177;SDS011;3122;48.208;11.174;2023-07-13T05:35:38;5.90;;;4.20;;
6177;SDS011;3122;48.208;11.174;2023-07-13T05:40:38;6.40;;;5.70;;
6177;SDS011;3122;48.208;11.174;2023-07-13T05:45:39;5.93;;;4.70;;
6177;SDS011;3122;48.208;11.174;2023-07-13T05:50:39;4.40;;;4.00;;
6177;SDS011;3122;48.208;11.174;2023-07-13T05:55:41;5.60;;;3.77;;
6177;SDS011;3122;48.208;11.174;2023-07-13T06:00:43;5.20;;;4.10;;
6177;SDS011;3122;48.208;11.174;2023-07-13T06:05:44;5.93;;;4.70;;
6177;SDS011;3122;48.208;11.174;2023-07-13T06:10:44;9.53;;;5.20;;
6177;SDS011;3122;48.208;11.174;2023-07-13T06:15:48;8.00;;;5.30;;
6177;SDS011;3122;48.208;11.174;2023-07-13T06:20:50;10.77;;;5.23;;
6177;SDS011;3122;48.208;11.174;2023-07-13T06:25:50;6.53;;;4.50;;
6177;SDS011;3122;48.208;11.174;2023-07-13T06:30:51;11.60;;;4.70;;
6177;SDS011;3122;48.208;11.174;2023-07-13T06:35:52;7.60;;;4.83;;
6177;SDS011;3122;48.208;11.174;2023-07-13T06:40:53;6.83;;;4.17;;
6177;SDS011;3122;48.208;11.174;2023-07-13T06:45:55;7.73;;;4.40;;
6177;SDS011;3122;48.208;11.174;2023-07-13T06:50:56;5.20;;;3.57;;
6177;SDS011;3122;48.208;11.174;2023-07-13T06:55:56;5.27;;;3.73;;
6177;SDS011;3122;48.208;11.174;2023-07-13T07:00:57;4.23;;;3.43;;
6177;SDS011;3122;48.208;11.174;2023-07-13T07:06:01;7.20;;;3.80;;
6177;SDS011;3122;48.208;11.174;2023-07-13T07:11:25;6.97;;;4.33;;
6177;SDS011;3122;48.208;11.174;2023-07-13T07:16:26;8.60;;;4.07;;
6177;SDS011;3122;48.208;11.174;2023-07-13T07:21:26;6.50;;;3.10;;
6177;SDS011;3122;48.208;11.174;2023-07-13T07:26:27;3.90;;;3.50;;
6177;SDS011;3122;48.208;11.174;2023-07-13T07:31:28;4.60;;;3.77;;
6177;SDS011;3122;48.208;11.174;2023-07-13T07:36:28;6.53;;;3.03;;
6177;SDS011;3122;48.208;11.174;2023-07-13T07:41:29;3.40;;;3.07;;
6177;SDS011;3122;48.208;11.174;2023-07-13T07:46:29;3.77;;;3.00;;
6177;SDS011;3122;48.208;11.174;2023-07-13T07:51:30;5.70;;;3.53;;
6177;SDS011;3122;48.208;11.174;2023-07-13T07:56:31;5.87;;;3.30;;
6177;SDS011;3122;48.208;11.174;2023-07-13T08:01:32;5.70;;;3.17;;
6177;SDS011;3122;48.208;11.174;2023-07-13T08:06:32;3.43;;;2.83;;
6177;SDS011;3122;48.208;11.174;2023-07-13T08:11:33;8.83;;;3.00;;
6177;SDS011;3122;48.208;11.174;2023-07-13T08:16:34;5.83;;;3.27;;
6177;SDS011;3122;48.208;11.174;2023-07-13T08:21:35;5.03;;;2.80;;
6177;SDS011;3122;48.208;11.174;2023-07-13T08:26:36;5.63;;;3.17;;
6177;SDS011;3122;48.208;11.174;2023-07-13T08:31:37;5.10;;;3.27;;
6177;SDS011;3122;48.208;11.174;2023-07-13T08:36:38;3.10;;;2.80;;
6177;SDS011;3122;48.208;11.174;2023-07-13T08:41:38;3.03;;;2.70;;
6177;SDS011;3122;48.208;11.174;2023-07-13T08:46:39;4.70;;;3.10;;
6177;SDS011;3122;48.208;11.174;2023-07-13T08:51:43;7.90;;;3.40;;
6177;SDS011;3122;48.208;11.174;2023-07-13T08:56:46;2.87;;;2.67;;
6177;SDS011;3122;48.208;11.174;2023-07-13T09:17:41;4.97;;;2.70;;
6177;SDS011;3122;48.208;11.174;2023-07-13T09:22:49;6.17;;;2.90;;
6177;SDS011;3122;48.208;11.174;2023-07-13T09:27:50;3.00;;;2.60;;
6177;SDS011;3122;48.208;11.174;2023-07-13T09:32:54;6.80;;;3.00;;
6177;SDS011;3122;48.208;11.174;2023-07-13T09:38:14;4.57;;;3.13;;
6177;SDS011;3122;48.208;11.174;2023-07-13T09:43:17;4.73;;;2.90;;
6177;SDS011;3122;48.208;11.174;2023-07-13T09:48:20;8.10;;;3.43;;
6177;SDS011;3122;48.208;11.174;2023-07-13T09:53:21;3.13;;;2.73;;
6177;SDS011;3122;48.208;11.174;2023-07-13T09:58:25;4.50;;;3.20;;
6177;SDS011;3122;48.208;11.174;2023-07-13T10:03:31;6.03;;;3.10;;
6177;SDS011;3122;48.208;11.174;2023-07-13T10:08:37;3.50;;;3.20;;
6177;SDS011;3122;48.208;11.174;2023-07-13T10:13:45;5.00;;;3.47;;
6177;SDS011;3122;48.208;11.174;2023-07-13T10:18:57;4.43;;;2.97;;
6177;SDS011;3122;48.208;11.174;2023-07-13T10:24:24;5.57;;;2.90;;
6177;SDS011;3122;48.208;11.174;2023-07-13T10:29:26;3.63;;;2.97;;
6177;SDS011;3122;48.208;11.174;2023-07-13T10:34:29;5.03;;;2.73;;
6177;SDS011;3122;48.208;11.174;2023-07-13T10:39:31;3.63;;;3.13;;
6177;SDS011;3122;48.208;11.174;2023-07-13T10:44:34;4.23;;;3.07;;
6177;SDS011;3122;48.208;11.174;2023-07-13T10:49:34;3.67;;;2.80;;
6177;SDS011;3122;48.208;11.174;2023-07-13T10:54:36;3.20;;;2.70;;
6177;SDS011;3122;48.208;11.174;2023-07-13T10:59:37;4.30;;;2.90;;
6177;SDS011;3122;48.208;11.174;2023-07-13T11:04:42;5.20;;;3.30;;
6177;SDS011;3122;48.208;11.174;2023-07-13T11:09:52;3.23;;;2.70;;
6177;SDS011;3122;48.208;11.174;2023-07-13T11:15:02;3.47;;;2.50;;
6177;SDS011;3122;48.208;11.174;2023-07-13T11:20:19;5.80;;;2.30;;
6177;SDS011;3122;48.208;11.174;2023-07-13T11:30:36;2.80;;;2.40;;
6177;SDS011;3122;48.208;11.174;2023-07-13T11:35:45;2.50;;;2.20;;
6177;SDS011;3122;48.208;11.174;2023-07-13T11:40:53;4.93;;;2.73;;
6177;SDS011;3122;48.208;11.174;2023-07-13T11:45:55;2.77;;;2.47;;
6177;SDS011;3122;48.208;11.174;2023-07-13T11:50:57;2.70;;;2.47;;
6177;SDS011;3122;48.208;11.174;2023-07-13T11:56:04;2.97;;;2.40;;
6177;SDS011;3122;48.208;11.174;2023-07-13T12:01:06;3.17;;;2.27;;
6177;SDS011;3122;48.208;11.174;2023-07-13T12:06:21;2.70;;;2.50;;
6177;SDS011;3122;48.208;11.174;2023-07-13T12:11:28;6.30;;;2.40;;
6177;SDS011;3122;48.208;11.174;2023-07-13T12:16:29;5.10;;;2.33;;
6177;SDS011;3122;48.208;11.174;2023-07-13T12:21:33;3.40;;;2.10;;
6177;SDS011;3122;48.208;11.174;2023-07-13T12:26:37;5.40;;;2.33;;
6177;SDS011;3122;48.208;11.174;2023-07-13T12:31:40;4.43;;;2.60;;
6177;SDS011;3122;48.208;11.174;2023-07-13T12:36:48;5.00;;;2.70;;
6177;SDS011;3122;48.208;11.174;2023-07-13T12:41:51;3.97;;;2.53;;
6177;SDS011;3122;48.208;11.174;2023-07-13T12:46:54;4.30;;;2.50;;
6177;SDS011;3122;48.208;11.174;2023-07-13T12:52:03;3.07;;;2.70;;
6177;SDS011;3122;48.208;11.174;2023-07-13T12:57:13;4.60;;;2.67;;
6177;SDS011;3122;48.208;11.174;2023-07-13T13:07:31;3.67;;;2.40;;
6177;SDS011;3122;48.208;11.174;2023-07-13T13:12:31;7.47;;;2.60;;
6177;SDS011;3122;48.208;11.174;2023-07-13T13:17:32;2.53;;;2.33;;
6177;SDS011;3122;48.208;11.174;2023-07-13T13:22:33;7.30;;;2.50;;
6177;SDS011;3122;48.208;11.174;2023-07-13T13:27:34;3.87;;;2.70;;
6177;SDS011;3122;48.208;11.174;2023-07-13T13:32:34;2.60;;;2.40;;
6177;SDS011;3122;48.208;11.174;2023-07-13T13:37:35;3.00;;;2.70;;
6177;SDS011;3122;48.208;11.174;2023-07-13T13:42:36;3.00;;;2.30;;
6177;SDS011;3122;48.208;11.174;2023-07-13T13:47:36;2.57;;;2.27;;
6177;SDS011;3122;48.208;11.174;2023-07-13T13:52:37;4.73;;;2.43;;
6177;SDS011;3122;48.208;11.174;2023-07-13T13:57:37;2.57;;;2.37;;
6177;SDS011;3122;48.208;11.174;2023-07-13T14:02:39;8.20;;;2.73;;
6177;SDS011;3122;48.208;11.174;2023-07-13T14:07:40;4.07;;;2.50;;
6177;SDS011;3122;48.208;11.174;2023-07-13T14:12:42;2.20;;;2.00;;
6177;SDS011;3122;48.208;11.174;2023-07-13T14:17:44;4.70;;;2.90;;
6177;SDS011;3122;48.208;11.174;2023-07-13T14:22:45;4.47;;;3.07;;
6177;SDS011;3122;48.208;11.174;2023-07-13T14:27:48;5.93;;;2.27;;
6177;SDS011;3122;48.208;11.174;2023-07-13T14:32:53;3.20;;;2.90;;
6177;SDS011;3122;48.208;11.174;2023-07-13T14:37:53;6.47;;;2.97;;
6177;SDS011;3122;48.208;11.174;2023-07-13T14:42:54;4.70;;;2.93;;
6177;SDS011;3122;48.208;11.174;2023-07-13T14:47:54;3.77;;;2.83;;
6177;SDS011;3122;48.208;11.174;2023-07-13T14:52:55;6.00;;;2.80;;
6177;SDS011;3122;48.208;11.174;2023-07-13T14:57:55;3.30;;;2.37;;
6177;SDS011;3122;48.208;11.174;2023-07-13T15:02:57;3.53;;;2.97;;
6177;SDS011;3122;48.208;11.174;2023-07-13T15:08:01;3.23;;;2.70;;
6177;SDS011;3122;48.208;11.174;2023-07-13T15:13:16;4.30;;;2.83;;
6177;SDS011;3122;48.208;11.174;2023-07-13T15:18:19;3.40;;;3.10;;
6177;SDS011;3122;48.208;11.174;2023-07-13T15:23:22;7.90;;;2.67;;
6177;SDS011;3122;48.208;11.174;2023-07-13T15:28:23;5.77;;;3.03;;
6177;SDS011;3122;48.208;11.174;2023-07-13T15:33:27;2.73;;;2.30;;
6177;SDS011;3122;48.208;11.174;2023-07-13T15:38:29;4.40;;;2.90;;
6177;SDS011;3122;48.208;11.174;2023-07-13T15:43:32;5.17;;;2.67;;
6177;SDS011;3122;48.208;11.174;2023-07-13T15:48:33;5.03;;;2.90;;
6177;SDS011;3122;48.208;11.174;2023-07-13T15:53:34;3.70;;;2.97;;
6177;SDS011;3122;48.208;11.174;2023-07-13T15:58:38;5.60;;;2.90;;
6177;SDS011;3122;48.208;11.174;2023-07-13T16:03:38;2.80;;;2.60;;
6177;SDS011;3122;48.208;11.174;2023-07-13T16:08:39;5.73;;;2.80;;
6177;SDS011;3122;48.208;11.174;2023-07-13T16:13:40;3.60;;;3.03;;
6177;SDS011;3122;48.208;11.174;2023-07-13T16:18:41;6.70;;;2.87;;
6177;SDS011;3122;48.208;11.174;2023-07-13T16:23:42;3.97;;;3.00;;
6177;SDS011;3122;48.208;11.174;2023-07-13T16:28:44;4.30;;;2.60;;
6177;SDS011;3122;48.208;11.174;2023-07-13T16:33:45;3.03;;;2.70;;
6177;SDS011;3122;48.208;11.174;2023-07-13T16:38:45;5.67;;;3.30;;
6177;SDS011;3122;48.208;11.174;2023-07-13T16:43:46;4.70;;;2.83;;
6177;SDS011;3122;48.208;11.174;2023-07-13T16:48:47;5.87;;;2.80;;
6177;SDS011;3122;48.208;11.174;2023-07-13T16:53:47;4.50;;;2.97;;
6177;SDS011;3122;48.208;11.174;2023-07-13T16:58:48;4.43;;;2.73;;
6177;SDS011;3122;48.208;11.174;2023-07-13T17:03:49;2.83;;;2.63;;
6177;SDS011;3122;48.208;11.174;2023-07-13T17:09:00;4.37;;;2.97;;
6177;SDS011;3122;48.208;11.174;2023-07-13T17:14:16;3.43;;;3.13;;
6177;SDS011;3122;48.208;11.174;2023-07-13T17:19:25;3.20;;;2.90;;
6177;SDS011;3122;48.208;11.174;2023-07-13T17:24:29;3.13;;;2.70;;
6177;SDS011;3122;48.208;11.174;2023-07-13T17:29:32;3.87;;;3.23;;
6177;SDS011;3122;48.208;11.174;2023-07-13T17:34:33;3.90;;;3.40;;
6177;SDS011;3122;48.208;11.174;2023-07-13T17:39:34;3.53;;;3.20;;
6177;SDS011;3122;48.208;11.174;2023-07-13T17:44:34;2.40;;;2.20;;
6177;SDS011;3122;48.208;11.174;2023-07-13T17:49:35;6.33;;;2.70;;
6177;SDS011;3122;48.208;11.174;2023-07-13T17:54:36;3.23;;;2.93;;
6177;SDS011;3122;48.208;11.174;2023-07-13T17:59:37;3.13;;;2.80;;
6177;SDS011;3122;48.208;11.174;2023-07-13T18:04:37;3.00;;;2.80;;
6177;SDS011;3122;48.208;11.174;2023-07-13T18:09:38;5.40;;;2.77;;
6177;SDS011;3122;48.208;11.174;2023-07-13T18:14:40;3.73;;;2.80;;
6177;SDS011;3122;48.208;11.174;2023-07-13T18:19:43;3.00;;;2.70;;
6177;SDS011;3122;48.208;11.174;2023-07-13T18:24:45;6.17;;;3.90;;
6177;SDS011;3122;48.208;11.174;2023-07-13T18:29:46;4.90;;;3.40;;
6177;SDS011;3122;48.208;11.174;2023-07-13T18:34:47;4.10;;;3.57;;
6177;SDS011;3122;48.208;11.174;2023-07-13T18:39:51;3.73;;;3.40;;
6177;SDS011;3122;48.208;11.174;2023-07-13T18:44:52;4.53;;;3.07;;
6177;SDS011;3122;48.208;11.174;2023-07-13T18:49:53;4.10;;;2.70;;
6177;SDS011;3122;48.208;11.174;2023-07-13T18:54:56;4.80;;;3.53;;
6177;SDS011;3122;48.208;11.174;2023-07-13T18:59:56;4.50;;;3.10;;
6177;SDS011;3122;48.208;11.174;2023-07-13T19:04:57;3.10;;;2.77;;
6177;SDS011;3122;48.208;11.174;2023-07-13T19:10:18;5.17;;;3.67;;
6177;SDS011;3122;48.208;11.174;2023-07-13T19:15:25;10.23;;;6.60;;
6177;SDS011;3122;48.208;11.174;2023-07-13T19:20:27;7.90;;;5.20;;
6177;SDS011;3122;48.208;11.174;2023-07-13T19:25:28;7.80;;;3.70;;
6177;SDS011;3122;48.208;11.174;2023-07-13T19:30:29;4.27;;;3.73;;
6177;SDS011;3122;48.208;11.174;2023-07-13T19:35:30;5.40;;;3.80;;
6177;SDS011;3122;48.208;11.174;2023-07-13T19:40:31;5.27;;;4.30;;
6177;SDS011;3122;48.208;11.174;2023-07-13T19:45:32;5.87;;;3.83;;
6177;SDS011;3122;48.208;11.174;2023-07-13T19:50:33;10.33;;;3.47;;
6177;SDS011;3122;48.208;11.174;2023-07-13T19:55:35;4.37;;;3.57;;
6177;SDS011;3122;48.208;11.174;2023-07-13T20:00:35;4.37;;;3.97;;
6177;SDS011;3122;48.208;11.174;2023-07-13T20:05:38;4.53;;;4.13;;
6177;SDS011;3122;48.208;11.174;2023-07-13T20:10:39;8.33;;;4.53;;
6177;SDS011;3122;48.208;11.174;2023-07-13T20:15:39;5.57;;;4.43;;
6177;SDS011;3122;48.208;11.174;2023-07-13T20:20:41;5.80;;;5.30;;
6177;SDS011;3122;48.208;11.174;2023-07-13T20:25:48;5.63;;;4.97;;
6177;SDS011;3122;48.208;11.174;2023-07-13T20:30:48;6.23;;;4.70;;
6177;SDS011;3122;48.208;11.174;2023-07-13T20:35:50;5.80;;;5.10;;
6177;SDS011;3122;48.208;11.174;2023-07-13T20:40:52;5.13;;;4.63;;
6177;SDS011;3122;48.208;11.174;2023-07-13T20:45:55;6.57;;;4.10;;
6177;SDS011;3122;48.208;11.174;2023-07-13T20:50:58;6.33;;;3.80;;
6177;SDS011;3122;48.208;11.174;2023-07-13T20:56:00;3.93;;;3.60;;
6177;SDS011;3122;48.208;11.174;2023-07-13T21:01:00;6.53;;;3.97;;
6177;SDS011;3122;48.208;11.174;2023-07-13T21:06:12;3.90;;;3.47;;
6177;SDS011;3122;48.208;11.174;2023-07-13T21:11:15;5.30;;;4.10;;
6177;SDS011;3122;48.208;11.174;2023-07-13T21:16:18;6.10;;;4.17;;
6177;SDS011;3122;48.208;11.174;2023-07-13T21:21:21;4.63;;;4.20;;
6177;SDS011;3122;48.208;11.174;2023-07-13T21:26:24;11.33;;;4.13;;
6177;SDS011;3122;48.208;11.174;2023-07-13T21:31:29;4.97;;;4.17;;
6177;SDS011;3122;48.208;11.174;2023-07-13T21:36:31;5.40;;;4.50;;
6177;SDS011;3122;48.208;11.174;2023-07-13T21:41:34;4.17;;;3.77;;
6177;SDS011;3122;48.208;11.174;2023-07-13T21:46:36;4.60;;;4.20;;
6177;SDS011;3122;48.208;11.174;2023-07-13T21:51:36;4.87;;;4.20;;
6177;SDS011;3122;48.208;11.174;2023-07-13T21:56:37;7.53;;;4.47;;
6177;SDS011;3122;48.208;11.174;2023-07-13T22:01:37;7.73;;;4.67;;
6177;SDS011;3122;48.208;11.174;2023-07-13T22:06:38;7.10;;;4.70;;
6177;SDS011;3122;48.208;11.174;2023-07-13T22:11:38;4.93;;;4.43;;
6177;SDS011;3122;48.208;11.174;2023-07-13T22:16:39;5.27;;;4.77;;
6177;SDS011;3122;48.208;11.174;2023-07-13T22:21:40;6.40;;;4.20;;
6177;SDS011;3122;48.208;11.174;2023-07-13T22:26:41;9.03;;;4.73;;
6177;SDS011;3122;48.208;11.174;2023-07-13T22:31:42;7.20;;;4.57;;
6177;SDS011;3122;48.208;11.174;2023-07-13T22:36:45;5.07;;;4.30;;
6177;SDS011;3122;48.208;11.174;2023-07-13T22:41:46;4.60;;;4.20;;
6177;SDS011;3122;48.208;11.174;2023-07-13T22:46:47;4.40;;;4.00;;
6177;SDS011;3122;48.208;11.174;2023-07-13T22:51:54;5.37;;;4.87;;
6177;SDS011;3122;48.208;11.174;2023-07-13T22:56:55;7.50;;;4.87;;
6177;SDS011;3122;48.208;11.174;2023-07-13T23:01:55;7.70;;;4.90;;
6177;SDS011;3122;48.208;11.174;2023-07-13T23:06:56;10.03;;;4.90;;
6177;SDS011;3122;48.208;11.174;2023-07-13T23:11:58;6.50;;;5.13;;
6177;SDS011;3122;48.208;11.174;2023-07-13T23:16:58;5.47;;;4.67;;
6177;SDS011;3122;48.208;11.174;2023-07-13T23:22:00;4.43;;;4.03;;
6177;SDS011;3122;48.208;11.174;2023-07-13T23:27:02;5.00;;;4.50;;
6177;SDS011;3122;48.208;11.174;2023-07-13T23:32:03;22.97;;;14.13;;
6177;SDS011;3122;48.208;11.174;2023-07-13T23:37:10;15.30;;;12.40;;
6177;SDS011;3122;48.208;11.174;2023-07-13T23:42:16;7.07;;;6.23;;
6177;SDS011;3122;48.208;11.174;2023-07-13T23:47:16;7.80;;;5.83;;
6177;SDS011;3122;48.208;11.174;2023-07-13T23:52:18;5.13;;;4.73;;
6177;SDS011;3122;48.208;11.174;2023-07-13T23:57:19;5.10;;;4.60;;
